Flight Track Log - Related Links

Times and Time Zones

All times are in EDT time to prevent confusion due to time zone crossing. See the NKS298 flight status page for this flight to view local times or setup timezone preferences in your user account.

Time Position Orientation Groundspeed Altitude Reporting Facility
EDT Latitude Longitude Course Direction KTS MPH feet Rate Location/Type
Fri 05:06:46 AM 36.0770 -115.1210 163° South 17 20  Level FlightAware ADS-B
Fri 05:07:54 AM 36.0760 -115.1230 238° Southwest 33 38 1,406 Level FlightAware ADS-B
Fri 05:08:14 AM 36.0760 -115.1320 270° West 125 144 3,000 Level FlightAware ADS-B
Fri 05:08:54 AM 36.0760 -115.1700 270° West 169 194 3,000 3,250 Climbing FlightAware ADS-B
Fri 05:09:26 AM 36.0750 -115.2000 268° West 181 208 3,900 1,286 Climbing FlightAware ADS-B
Fri 05:09:50 AM 36.0760 -115.2270 273° West 202 232 4,200 889 Climbing FlightAware ADS-B
Fri 05:10:20 AM 36.0620 -115.2600 242° Southwest 241 277 4,700 1,091 Climbing FlightAware ADS-B
Fri 05:10:34 AM 36.0470 -115.2670 201° Southwest 255 293 5,000 1,385 Climbing FlightAware ADS-B
Fri 05:10:46 AM 36.0330 -115.2730 199° South 268 308 5,300 2,182 Climbing FlightAware ADS-B
Fri 05:11:40 AM 35.9670 -115.2990 198° South 290 334 7,400 2,400 Climbing FlightAware ADS-B
Fri 05:12:11 AM 35.9270 -115.2860 165° South 295 339 8,700 2,553 Climbing FlightAware ADS-B
Fri 05:12:27 AM 35.9070 -115.2770 160° South 295 339 9,400 2,533 Climbing FlightAware ADS-B
Fri 05:12:56 AM 35.8710 -115.2560 155° Southeast 301 346 10,600 2,108 Climbing FlightAware ADS-B
Fri 05:13:04 AM 35.8640 -115.2450 128° Southeast 309 356 10,700 1,071 Climbing FlightAware ADS-B
Fri 05:13:24 AM 35.8540 -115.2110 110° East 329 379 11,100 1,400 Climbing FlightAware ADS-B
Fri 05:14:04 AM 35.8360 -115.1360 106° East 354 407 12,100 1,870 Climbing FlightAware ADS-B
Fri 05:14:41 AM 35.8220 -115.0640 103° East 361 415 13,500 2,286 Climbing FlightAware ADS-B
Fri 05:15:28 AM 35.8320 -114.9640 83° East 370 426 15,300 2,047 Climbing FlightAware ADS-B
Fri 05:16:06 AM 35.8390 -114.8840 84° East 380 437 16,400 1,814 Climbing FlightAware ADS-B
Fri 05:16:54 AM 35.8490 -114.7780 83° East 390 449 17,900 2,045 Climbing FlightAware ADS-B
Fri 05:17:34 AM 35.8560 -114.6930 84° East 389 448 19,400 1,756 Climbing FlightAware ADS-B
Fri 05:18:16 AM 35.8650 -114.5960 83° East 406 467 20,300 1,643 Climbing FlightAware ADS-B
Fri 05:18:58 AM 35.8730 -114.5000 84° East 406 467 21,700 1,756 Climbing FlightAware ADS-B
Fri 05:19:38 AM 35.8810 -114.4080 84° East 413 475 22,700 1,429 Climbing FlightAware ADS-B
Fri 05:20:22 AM 35.8900 -114.3020 84° East 425 489 23,700 1,500 Climbing FlightAware ADS-B
Fri 05:21:06 AM 35.8990 -114.1970 84° East 426 490 24,900 1,465 Climbing FlightAware ADS-B
Fri 05:21:48 AM 35.9080 -114.0960 84° East 433 498 25,800 1,390 Climbing FlightAware ADS-B
Fri 05:22:28 AM 35.9160 -113.9960 84° East 436 502 26,800 1,286 Climbing FlightAware ADS-B
Fri 05:23:26 AM 35.9160 -113.8520 90° East 444 511 27,900 1,140 Climbing FlightAware ADS-B
Fri 05:24:08 AM 35.8990 -113.7460 101° East 451 519 28,700 1,171 Climbing FlightAware ADS-B
Fri 05:24:48 AM 35.8830 -113.6440 101° East 454 522 29,500 1,357 Climbing FlightAware ADS-B
Fri 05:25:32 AM 35.8660 -113.5340 101° East 451 519 30,600 1,500 Climbing FlightAware ADS-B
Fri 05:26:12 AM 35.8500 -113.4340 101° East 446 513 31,600 1,214 Climbing FlightAware ADS-B
Fri 05:26:56 AM 35.8320 -113.3240 101° East 452 520 32,300 1,071 Climbing FlightAware ADS-B
Fri 05:27:36 AM 35.8110 -113.2230 104° East 453 521 33,100 1,538 Climbing FlightAware ADS-B
Fri 05:28:14 AM 35.7880 -113.1330 107° East 439 505 34,300 1,326 Climbing FlightAware ADS-B
Fri 05:29:02 AM 35.7610 -113.0180 106° East 433 498 35,000 488 Climbing FlightAware ADS-B
Fri 05:29:40 AM 35.7390 -112.9280 107° East 432 497 35,000  Level FlightAware ADS-B
Fri 05:30:40 AM 35.7060 -112.7860 106° East 433 498 35,000  Level FlightAware ADS-B
Fri 05:31:22 AM 35.6820 -112.6890 107° East 433 498 35,000  Level FlightAware ADS-B
Fri 05:32:02 AM 35.6590 -112.5930 106° East 432 497 35,000  Level FlightAware ADS-B
Fri 05:32:46 AM 35.6350 -112.4910 106° East 429 494 35,000  Level FlightAware ADS-B
Fri 05:33:26 AM 35.6120 -112.3970 107° East 429 494 35,000  Level FlightAware ADS-B
Fri 05:34:08 AM 35.5880 -112.2980 107° East 431 496 35,000  Level FlightAware ADS-B
Fri 05:34:51 AM 35.5630 -112.1990 107° East 433 498 35,000  Level FlightAware ADS-B
Fri 05:35:29 AM 35.5410 -112.1100 107° East 433 498 35,000  Level FlightAware ADS-B
Fri 05:36:09 AM 35.5180 -112.0150 107° East 435 501 35,000  Level FlightAware ADS-B
Fri 05:36:59 AM 35.4890 -111.8970 107° East 433 498 35,000  Level FlightAware ADS-B
Fri 05:37:38 AM 35.4670 -111.8070 107° East 432 497 35,000  Level FlightAware ADS-B
Fri 05:38:21 AM 35.4410 -111.7050 107° East 431 496 35,000  Level FlightAware ADS-B
Fri 05:39:01 AM 35.4180 -111.6120 107° East 431 496 35,000  Level FlightAware ADS-B
Fri 05:39:43 AM 35.3940 -111.5140 107° East 431 496 35,000  Level FlightAware ADS-B
Fri 05:40:27 AM 35.3680 -111.4110 107° East 431 496 35,000  Level FlightAware ADS-B
Fri 05:41:07 AM 35.3450 -111.3200 107° East 430 495 35,000  Level FlightAware ADS-B
Fri 05:41:51 AM 35.3180 -111.2160 108° East 431 496 35,000  Level FlightAware ADS-B
Fri 05:42:33 AM 35.2930 -111.1190 107° East 434 499 35,000  Level FlightAware ADS-B
Fri 05:43:13 AM 35.2690 -111.0250 107° East 437 503 35,000  Level FlightAware ADS-B
Fri 05:43:59 AM 35.2420 -110.9170 107° East 438 504 35,000  Level FlightAware ADS-B
Fri 05:44:39 AM 35.2170 -110.8220 108° East 438 504 35,000  Level FlightAware ADS-B
Fri 05:45:23 AM 35.1942 -110.7361 108° East 437 503 35,000  Level Albuquerque Center
Fri 05:46:23 AM 35.1531 -110.5783 108° East 437 503 35,000  Level Albuquerque Center
Fri 05:47:23 AM 35.1169 -110.4422 108° East 439 505 35,000  Level Albuquerque Center
Fri 05:48:24 AM 35.0819 -110.3083 108° East 437 503 35,000  Level Albuquerque Center
Fri 05:54:10 AM 34.9060 -109.6430 108° East 436 502 35,000  Level FlightAware ADS-B
Fri 05:54:51 AM 34.8470 -109.4240 108° East 439 505 35,000  Level FlightAware ADS-B
Fri 05:55:35 AM 34.8090 -109.2890 109° East 441 507 35,000  Level FlightAware ADS-B
Fri 05:56:17 AM 34.7820 -109.1900 108° East 440 506 35,000  Level FlightAware ADS-B
Fri 05:57:01 AM 34.7540 -109.0880 108° East 440 506 35,000  Level FlightAware ADS-B
Fri 05:57:38 AM 34.7300 -109.0000 108° East 441 507 35,000  Level FlightAware ADS-B
Fri 05:58:16 AM 34.7080 -108.9180 108° East 442 509 35,000  Level FlightAware ADS-B
Fri 05:59:03 AM 34.6830 -108.8240 108° East 442 509 35,000  Level FlightAware ADS-B
Fri 05:59:49 AM 34.6580 -108.7310 108° East 442 509 35,000  Level FlightAware ADS-B
Fri 06:00:35 AM 34.6330 -108.6390 108° East 442 509 35,000  Level FlightAware ADS-B
Fri 06:01:45 AM 34.5960 -108.4980 108° East 442 509 35,000  Level FlightAware ADS-B
Fri 06:03:09 AM 34.5510 -108.3300 108° East 442 509 35,000  Level FlightAware ADS-B
Fri 06:04:32 AM 34.5060 -108.1630 108° East 442 509 35,000  Level FlightAware ADS-B
Fri 06:05:44 AM 34.4090 -107.8610 111° Southeast 441 507 35,000  Level FlightAware ADS-B
Fri 06:06:12 AM 34.3920 -107.8030 110° East 441 507 35,000  Level FlightAware ADS-B
Fri 06:07:46 AM 34.3340 -107.6010 109° East 442 509 35,000  Level FlightAware ADS-B
Fri 06:11:19 AM 34.1830 -107.0860 109° East 437 503 35,000  Level FlightAware ADS-B
Fri 06:14:09 AM 34.0750 -106.7230 110° East 441 507 35,000  Level FlightAware ADS-B
Fri 06:14:49 AM 34.0380 -106.6010 110° East 440 506 35,000  Level FlightAware ADS-B
Fri 06:15:31 AM 34.0111 -106.5117 110° East 438 504 35,000  Level Albuquerque Center
Fri 06:21:12 AM 33.8160 -105.8400 110° East 436 502 35,000  Level FlightAware ADS-B
Fri 06:21:53 AM 33.7930 -105.7600 109° East 436 502 35,000  Level FlightAware ADS-B
Fri 06:22:30 AM 33.7720 -105.6870 109° East 436 502 35,000  Level FlightAware ADS-B
Fri 06:23:19 AM 33.7450 -105.5920 109° East 436 502 35,000  Level FlightAware ADS-B
Fri 06:23:55 AM 33.7250 -105.5220 109° East 436 502 35,000  Level FlightAware ADS-B
Fri 06:24:43 AM 33.6980 -105.4280 109° East 436 502 35,000  Level FlightAware ADS-B
Fri 06:25:20 AM 33.6770 -105.3560 109° East 436 502 35,000 1,091 Level FlightAware ADS-B
Fri 06:26:33 AM 33.5550 -105.0447 109° East 417 480 37,000 896 Climbing Albuquerque Center
Fri 06:27:34 AM 33.5142 -104.9142 111° Southeast 418 481 37,000 198 Level Albuquerque Center
Fri 06:28:34 AM 33.4744 -104.7875 111° Southeast 408 470 37,400 800 Climbing Albuquerque Center
Fri 06:29:34 AM 33.4356 -104.6644 111° Southeast 397 457 38,600 800 Climbing Albuquerque Center
Fri 06:30:34 AM 33.3986 -104.5472 111° Southeast 402 463 39,000 198 Climbing Albuquerque Center
Fri 06:31:35 AM 33.3592 -104.4267 111° Southeast 395 455 39,000  Level Albuquerque Center
Fri 06:32:35 AM 33.3164 -104.2919 111° Southeast 395 455 39,000  Level Albuquerque Center
Fri 06:33:35 AM 33.2772 -104.1714 111° Southeast 391 450 39,000  Level Albuquerque Center
Fri 06:35:07 AM 33.2181 -103.9878 111° Southeast 397 457 39,000  Level Fort Worth Center
Fri 06:36:07 AM 33.1789 -103.8583 110° East 402 463 39,000  Level Fort Worth Center
Fri 06:37:07 AM 33.1311 -103.7308 114° Southeast 402 463 39,000  Level Fort Worth Center
Fri 06:38:07 AM 33.0894 -103.6042 111° Southeast 402 463 39,000  Level Fort Worth Center
Fri 06:39:07 AM 33.0500 -103.4750 110° East 402 463 39,000  Level Fort Worth Center
Fri 06:39:37 AM 33.0317 -103.4236 113° Southeast 416 479 39,000  Level Albuquerque Center
Fri 06:40:07 AM 33.0058 -103.3481 112° Southeast 407 468 39,000  Level Fort Worth Center
Fri 06:41:07 AM 32.9619 -103.2189 112° Southeast 407 468 39,000  Level Fort Worth Center
Fri 06:42:07 AM 32.9178 -103.0875 112° Southeast 412 474 39,000  Level Fort Worth Center
Fri 06:43:07 AM 32.8733 -102.9611 113° Southeast 417 480 39,000  Level Fort Worth Center
Fri 06:44:07 AM 32.8311 -102.8322 111° Southeast 417 480 39,000  Level Fort Worth Center
Fri 06:45:07 AM 32.7864 -102.7011 112° Southeast 422 486 39,000 -581 Level Fort Worth Center
Fri 06:51:00 AM 32.5130 -101.9110 112° Southeast 437 503 35,000 -594 Descending FlightAware ADS-B
Fri 06:51:51 AM 32.4730 -101.7970 113° Southeast 436 502 35,000  Level FlightAware ADS-B
Fri 06:52:40 AM 32.4350 -101.6900 113° Southeast 435 501 35,000  Level FlightAware ADS-B
Fri 06:53:19 AM 32.4040 -101.6030 113° Southeast 435 501 35,000  Level FlightAware ADS-B
Fri 06:54:01 AM 32.3720 -101.5110 112° Southeast 435 501 35,000  Level FlightAware ADS-B
Fri 06:54:45 AM 32.3380 -101.4150 113° Southeast 432 497 35,000  Level FlightAware ADS-B
Fri 06:55:19 AM 32.3110 -101.3410 113° Southeast 432 497 35,000  Level FlightAware ADS-B
Fri 06:56:06 AM 32.2750 -101.2390 113° Southeast 432 497 35,000  Level FlightAware ADS-B
Fri 06:56:45 AM 32.2450 -101.1540 113° Southeast 432 497 35,000  Level FlightAware ADS-B
Fri 06:57:33 AM 32.2070 -101.0500 113° Southeast 432 497 35,000  Level FlightAware ADS-B
Fri 06:58:13 AM 32.1760 -100.9630 113° Southeast 432 497 35,000  Level FlightAware ADS-B
Fri 06:58:54 AM 32.1440 -100.8750 113° Southeast 432 497 35,000  Level FlightAware ADS-B
Fri 06:59:38 AM 32.1100 -100.7790 113° Southeast 433 498 35,000  Level FlightAware ADS-B
Fri 07:03:52 AM 31.9250 -100.2740 113° Southeast 429 494 35,000  Level FlightAware ADS-B
Fri 07:04:39 AM 31.8730 -100.1330 113° Southeast 429 494 35,000  Level FlightAware ADS-B
Fri 07:05:18 AM 31.8420 -100.0510 114° Southeast 430 495 35,000  Level FlightAware ADS-B
Fri 07:06:00 AM 31.8070 -99.9580 114° Southeast 431 496 35,000  Level FlightAware ADS-B
Fri 07:06:40 AM 31.7770 -99.8770 114° Southeast 432 497 35,000  Level FlightAware ADS-B
Fri 07:07:40 AM 31.7270 -99.7430 114° Southeast 433 498 35,000  Level FlightAware ADS-B
Fri 07:08:19 AM 31.6950 -99.6600 114° Southeast 433 498 35,000  Level FlightAware ADS-B
Fri 07:08:58 AM 31.6630 -99.5760 114° Southeast 433 498 35,000  Level FlightAware ADS-B
Fri 07:09:26 AM 31.6403 -99.5162 114° Southeast 432 497 35,000  Level FlightAware ADS-B
Fri 07:10:00 AM 31.6125 -99.4431 114° Southeast 432 497 35,000  Level FlightAware ADS-B
Fri 07:10:42 AM 31.5782 -99.3538 114° Southeast 432 497 35,000  Level FlightAware ADS-B
Fri 07:11:15 AM 31.5436 -99.2879 122° Southeast 435 501 35,000  Level FlightAware ADS-B
Fri 07:11:46 AM 31.4987 -99.2339 134° Southeast 435 501 35,000  Level FlightAware ADS-B
Fri 07:12:34 AM 31.4520 -99.1770 134° Southeast 434 499 35,000  Level FlightAware ADS-B
Fri 07:13:18 AM 31.3740 -99.0820 134° Southeast 435 501 35,000  Level FlightAware ADS-B
Fri 07:14:00 AM 31.3160 -99.0090 133° Southeast 436 502 35,000  Level FlightAware ADS-B
Fri 07:14:09 AM 31.3013 -98.9914 134° Southeast 436 502 35,000  Level FlightAware ADS-B
Fri 07:14:39 AM 31.2594 -98.9383 133° Southeast 435 501 35,000  Level FlightAware ADS-B
Fri 07:15:14 AM 31.2117 -98.8773 132° Southeast 437 503 35,000  Level FlightAware ADS-B
Fri 07:17:07 AM 31.1610 -98.6640 105° East 435 501 35,000  Level FlightAware ADS-B
Fri 07:17:53 AM 31.1417 -98.5188 99° East 435 501 35,000  Level FlightAware ADS-B
Fri 07:18:31 AM 31.1303 -98.4310 99° East 435 501 35,000  Level FlightAware ADS-B
Fri 07:19:04 AM 31.1201 -98.3537 99° East 435 501 35,000  Level FlightAware ADS-B
Fri 07:19:35 AM 31.1109 -98.2833 99° East 435 501 35,000  Level FlightAware ADS-B
Fri 07:20:06 AM 31.1015 -98.2123 99° East 434 499 35,000  Level FlightAware ADS-B
Fri 07:20:38 AM 31.0917 -98.1385 99° East 433 498 35,000  Level FlightAware ADS-B
Fri 07:21:15 AM 31.0810 -98.0560 99° East 433 498 35,000  Level FlightAware ADS-B
Fri 07:21:24 AM 31.0775 -98.0319 100° East 433 498 35,000  Level FlightAware ADS-B
Fri 07:21:57 AM 31.0672 -97.9556 99° East 432 497 35,000  Level FlightAware ADS-B
Fri 07:22:27 AM 31.0578 -97.8860 99° East 431 496 35,000  Level FlightAware ADS-B
Fri 07:22:58 AM 31.0483 -97.8165 99° East 431 496 35,000  Level FlightAware ADS-B
Fri 07:23:28 AM 31.0390 -97.7478 99° East 432 497 35,000  Level FlightAware ADS-B
Fri 07:23:58 AM 31.0295 -97.6771 99° East 433 498 35,000  Level FlightAware ADS-B
Fri 07:24:18 AM 31.0229 -97.6333 100° East 435 501 35,000 -207 Level FlightAware ADS-B
Fri 07:24:27 AM 31.0174 -97.6126 107° East 434 499 34,900 -800 Descending FlightAware ADS-B
Fri 07:24:33 AM 31.0130 -97.6005 113° Southeast 434 499 34,800 -1,714 Descending FlightAware ADS-B
Fri 07:24:41 AM 31.0044 -97.5820 118° Southeast 435 501 34,500 -2,615 Descending FlightAware ADS-B
Fri 07:25:12 AM 30.9720 -97.5210 122° Southeast 439 505 33,100 -3,194 Descending FlightAware ADS-B
Fri 07:25:43 AM 30.9393 -97.4587 121° Southeast 451 519 31,200 -3,524 Descending FlightAware ADS-B
Fri 07:26:15 AM 30.9043 -97.3910 121° Southeast 456 525 29,400 -3,387 Descending FlightAware ADS-B
Fri 07:26:45 AM 30.8710 -97.3269 121° Southeast 459 528 27,700 -3,300 Descending FlightAware ADS-B
Fri 07:27:15 AM 30.8375 -97.2630 121° Southeast 460 529 26,100 -2,754 Descending FlightAware ADS-B
Fri 07:27:46 AM 30.8039 -97.1990 121° Southeast 454 522 24,900 -2,419 Descending FlightAware ADS-B
Fri 07:28:17 AM 30.7704 -97.1350 121° Southeast 444 511 23,600 -2,381 Descending FlightAware ADS-B
Fri 07:28:49 AM 30.7372 -97.0714 121° Southeast 435 501 22,400 -2,226 Descending FlightAware ADS-B
Fri 07:29:19 AM 30.7057 -97.0113 121° Southeast 424 488 21,300 -2,262 Descending FlightAware ADS-B
Fri 07:29:50 AM 30.6747 -96.9527 122° Southeast 416 479 20,100 -2,656 Descending FlightAware ADS-B
Fri 07:30:20 AM 30.6441 -96.8948 122° Southeast 418 481 18,600 -2,806 Descending FlightAware ADS-B
Fri 07:30:52 AM 30.6121 -96.8345 122° Southeast 410 472 17,200 -2,516 Descending FlightAware ADS-B
Fri 07:31:22 AM 30.5823 -96.7789 122° Southeast 403 464 16,000 -2,361 Descending FlightAware ADS-B
Fri 07:31:53 AM 30.5526 -96.7226 121° Southeast 394 453 14,800 -2,066 Descending FlightAware ADS-B
Fri 07:32:23 AM 30.5246 -96.6697 122° Southeast 378 435 13,900 -2,300 Descending FlightAware ADS-B
Fri 07:32:53 AM 30.4971 -96.6178 122° Southeast 378 435 12,500 -2,700 Descending FlightAware ADS-B
Fri 07:33:23 AM 30.4696 -96.5665 122° Southeast 373 429 11,200 -2,449 Descending FlightAware ADS-B
Fri 07:33:42 AM 30.4528 -96.5348 122° Southeast 369 425 10,500 -2,000 Descending FlightAware ADS-B
Fri 07:33:47 AM 30.4490 -96.5260 117° Southeast 366 421 10,400 -1,333 Descending FlightAware ADS-B
Fri 07:33:51 AM 30.4469 -96.5193 110° East 361 415 10,300 -1,333 Descending FlightAware ADS-B
Fri 07:33:56 AM 30.4448 -96.5099 105° East 357 411 10,200 -1,200 Descending FlightAware ADS-B
Fri 07:34:01 AM 30.4438 -96.5005 97° East 350 403 10,100 -667 Descending FlightAware ADS-B
Fri 07:34:05 AM 30.4438 -96.4931 90° East 346 398 10,100 -667 Level FlightAware ADS-B
Fri 07:34:10 AM 30.4446 -96.4847 84° East 342 394 10,000 -667 Descending FlightAware ADS-B
Fri 07:34:14 AM 30.4463 -96.4761 77° East 336 387 10,000  Level FlightAware ADS-B
Fri 07:34:19 AM 30.4488 -96.4684 69° East 334 384 10,000  Level FlightAware ADS-B
Fri 07:34:35 AM 30.4591 -96.4426 65° Northeast 334 384 10,000  Level FlightAware ADS-B
Fri 07:34:50 AM 30.4694 -96.4180 64° Northeast 335 386 10,000  Level FlightAware ADS-B
Fri 07:35:06 AM 30.4800 -96.3929 64° Northeast 334 384 10,000  Level FlightAware ADS-B
Fri 07:35:21 AM 30.4902 -96.3681 64° Northeast 333 383 10,000  Level FlightAware ADS-B
Fri 07:35:39 AM 30.5023 -96.3386 65° Northeast 333 383 10,000  Level FlightAware ADS-B
Fri 07:35:54 AM 30.5122 -96.3143 65° Northeast 333 383 10,000  Level FlightAware ADS-B
Fri 07:36:25 AM 30.5325 -96.2642 65° Northeast 332 382 10,000  Level FlightAware ADS-B
Fri 07:36:47 AM 30.5468 -96.2285 65° Northeast 335 386 10,000  Level FlightAware ADS-B
Fri 07:36:55 AM 30.5504 -96.2149 76° East 335 386 10,000  Level FlightAware ADS-B
Fri 07:36:59 AM 30.5513 -96.2078 82° East 336 387 10,000  Level FlightAware ADS-B
Fri 07:37:04 AM 30.5515 -96.2001 88° East 336 387 10,000  Level FlightAware ADS-B
Fri 07:37:12 AM 30.5498 -96.1847 97° East 339 390 10,000  Level FlightAware ADS-B
Fri 07:37:15 AM 30.5484 -96.1789 106° East 339 390 10,000  Level FlightAware ADS-B
Fri 07:37:31 AM 30.5407 -96.1526 109° East 340 391 10,000  Level FlightAware ADS-B
Fri 07:37:46 AM 30.5328 -96.1263 109° East 339 390 10,000  Level FlightAware ADS-B
Fri 07:38:02 AM 30.5247 -96.0994 109° East 339 390 10,000  Level FlightAware ADS-B
Fri 07:39:18 AM 30.4853 -95.9688 109° East 339 390 10,000  Level FlightAware ADS-B
Fri 07:40:12 AM 30.4573 -95.8764 109° East 338 389 10,000  Level FlightAware ADS-B
Fri 07:40:23 AM 30.4491 -95.8590 125° Southeast 340 391 10,000  Level FlightAware ADS-B
Fri 07:40:31 AM 30.4404 -95.8478 134° Southeast 340 391 10,000  Level FlightAware ADS-B
Fri 07:40:59 AM 30.4086 -95.8144 138° Southeast 341 392 10,000  Level FlightAware ADS-B
Fri 07:42:01 AM 30.3348 -95.7383 138° Southeast 344 396 10,000  Level FlightAware ADS-B
Fri 07:42:16 AM 30.3166 -95.7193 138° Southeast 344 396 10,000 -336 Level FlightAware ADS-B
Fri 07:43:48 AM 30.2161 -95.6146 138° Southeast 291 335 9,400 -634 Descending FlightAware ADS-B
Fri 07:44:19 AM 30.1856 -95.5827 138° Southeast 287 330 8,700 -1,462 Descending FlightAware ADS-B
Fri 07:45:06 AM 30.1387 -95.5339 138° Southeast 286 329 7,500 -1,500 Descending FlightAware ADS-B
Fri 07:45:27 AM 30.1186 -95.5126 137° Southeast 284 327 7,000 -1,200 Descending FlightAware ADS-B
Fri 07:45:31 AM 30.1154 -95.5086 133° Southeast 283 326 7,000  Level FlightAware ADS-B
Fri 07:45:53 AM 30.1060 -95.4777 93° East 282 325 7,000  Level FlightAware ADS-B
Fri 07:46:09 AM 30.1060 -95.4549 90° East 282 325 7,000  Level FlightAware ADS-B
Fri 07:46:24 AM 30.1062 -95.4319 89° East 282 325 7,000  Level FlightAware ADS-B
Fri 07:46:40 AM 30.1063 -95.4077 90° East 282 325 7,000  Level FlightAware ADS-B
Fri 07:47:11 AM 30.1064 -95.3611 90° East 281 323 7,000 -132 Level FlightAware ADS-B
Fri 07:48:11 AM 30.1064 -95.2705 90° East 277 319 6,800 -744 Descending FlightAware ADS-B
Fri 07:49:12 AM 30.1061 -95.1817 90° East 259 298 5,500 -1,129 Descending FlightAware ADS-B
Fri 07:49:36 AM 30.1059 -95.1513 91° East 234 269 5,200 -857 Descending FlightAware ADS-B
Fri 07:49:40 AM 30.1052 -95.1457 98° East 233 268 5,100 -1,636 Descending FlightAware ADS-B
Fri 07:49:47 AM 30.1028 -95.1379 113° Southeast 231 266 4,900 -1,714 Descending FlightAware ADS-B
Fri 07:49:54 AM 30.0986 -95.1308 128° Southeast 230 265 4,700 -1,714 Descending FlightAware ADS-B
Fri 07:50:01 AM 30.0927 -95.1250 142° Southeast 231 266 4,500 -1,680 Descending FlightAware ADS-B
Fri 07:50:19 AM 30.0747 -95.1199 179° South 228 262 4,000 -1,826 Descending FlightAware ADS-B
Fri 07:50:24 AM 30.0699 -95.1200 181° South 226 260 3,800 -1,333 Descending FlightAware ADS-B
Fri 07:50:37 AM 30.0564 -95.1207 183° South 219 252 3,600 -1,317 Descending FlightAware ADS-B
Fri 07:51:05 AM 30.0282 -95.1217 182° South 213 245 2,900 -1,455 Descending FlightAware ADS-B
Fri 07:51:10 AM 30.0234 -95.1228 191° South 211 243 2,800 -1,200 Descending FlightAware ADS-B
Fri 07:51:20 AM 30.0150 -95.1282 216° Southwest 201 231 2,600 -857 Descending FlightAware ADS-B
Fri 07:51:24 AM 30.0129 -95.1306 225° Southwest 199 229 2,600 -720 Level FlightAware ADS-B
Fri 07:51:45 AM 30.0011 -95.1480 233° Southwest 185 213 2,300 -774 Descending FlightAware ADS-B
Fri 07:51:55 AM 29.9964 -95.1562 237° Southwest 182 209 2,200 -400 Descending FlightAware ADS-B
Fri 07:52:00 AM 29.9951 -95.1600 248° West 182 209 2,200 -667 Level FlightAware ADS-B
Fri 07:52:04 AM 29.9944 -95.1637 258° West 181 208 2,100 -1,000 Descending FlightAware ADS-B
Fri 07:52:12 AM 29.9938 -95.1719 265° West 180 207 2,000 -240 Descending FlightAware ADS-B
Fri 07:52:29 AM 29.9935 -95.1878 269° West 177 204 2,000  Level FlightAware ADS-B
Fri 07:52:50 AM 29.9935 -95.2071 270° West 175 201 2,000 -353 Level FlightAware ADS-B
Fri 07:53:03 AM 29.9934 -95.2195 269° West 177 204 1,800 -889 Descending FlightAware ADS-B
Fri 07:53:17 AM 29.9935 -95.2330 270° West 173 199 1,600 -1,000 Descending FlightAware ADS-B
Fri 07:53:27 AM 29.9934 -95.2418 269° West 164 189 1,400 -960 Descending FlightAware ADS-B
Fri 07:53:42 AM 29.9934 -95.2543 270° West 153 176 1,200 -750 Descending FlightAware ADS-B
Fri 07:53:59 AM 29.9934 -95.2667 270° West 133 153 1,000 -500 Descending FlightAware ADS-B
Fri 07:54:06 AM 29.9934 -95.2717 270° West 126 145 1,000 -400 Level FlightAware ADS-B
Fri 07:54:14 AM 29.9935 -95.2770 271° West 124 143 900 -818 Descending FlightAware ADS-B
Fri 07:54:28 AM 29.9934 -95.2864 269° West 122 140 700 -857 Descending FlightAware ADS-B
Fri 07:54:35 AM 29.9934 -95.2909 270° West 123 142 600 -632 Descending FlightAware ADS-B
Fri 07:54:47 AM 29.9934 -95.2986 270° West 125 144 500 -480 Descending FlightAware ADS-B
Fri 07:55:00 AM 29.9934 -95.3070 270° West 125 144 400 -600 Descending FlightAware ADS-B
Fri 07:55:07 AM 29.9934 -95.3118 270° West 125 144 300 -800 Descending FlightAware ADS-B
Fri 07:55:15 AM 29.9934 -95.3174 270° West 123 142 200 -750 Descending FlightAware ADS-B
Fri 07:55:23 AM 29.9934 -95.3226 270° West 124 143 100 -750 Descending FlightAware ADS-B

Login

Don't have an account? Register now (free) for customized features, flight alerts, and more!